Main page
METAR-TAF:

METAR-TAF

Airports :

Augsburg, Germany

Augsburg Airport

latitude: 48-26N, longitude: 010-56E, elevation: 461 m

Current weather observation

The report was made 28 minutes ago, at 14:50 UTC
Wind 6 kt from the Southwest
Temperature 12°C
Humidity 71%
Pressure 1017 hPa
Visibility 10 km or more
Few clouds at a height of 3000 ft
Scattered clouds at a height of 5300 ft
showers in vicinity

METAR: EDMA 191450Z 23006KT 9999 VCSH FEW030 SCT053 12/07 Q1017

Time: 17:18 (15:18 UTC)

Forecast

The report was made 1 hour and 18 minutes ago, at 14:00 UTC
Forecast valid from 19 at 15 UTC to 19 at 24 UTC
Wind 4 kt from the West/Northwest
Visibility 10 km or more
Few clouds at a height of 2000 ft
Scattered clouds at a height of 4000 ft
Probability 40% :
Temporary
from 19 at 15 UTC to 19 at 16 UTC
Wind 9 kt from the Northwest
Broken clouds at a height of 2000 ft, Towering cumulus.
rain showers

TAF: EDMA 191400Z 1915/1924 29004KT 9999 FEW020 SCT040 PROB40 TEMPO 1915/1916 32009KT SHRA BKN020TCU

Weather observations and forecasts of more than 4000 airports (METAR and TAF reports).

The available stations are represented by yellow and red dots on the map.

Hover mouse over dot to see the name of the station.

Then click to see weather observations and forecasts.

To change the map : click on the green buttons with a black cross to zoom in, on the green button with a dash to zoom out, or on the green arrows for adjacent maps.


METAR-TAF: